createdAt,value
2022-08-19T00:01:30.649Z,20.37
2022-08-19T00:03:59.866Z,16.17
2022-08-19T00:06:27.728Z,15.73
2022-08-19T00:08:54.621Z,18.70
2022-08-19T00:11:25.343Z,16.97
2022-08-19T00:13:53.310Z,14.77
2022-08-19T00:16:26.201Z,18.07
2022-08-19T00:18:54.413Z,17.80
2022-08-19T00:21:21.320Z,19.77
2022-08-19T00:23:48.719Z,26.00
2022-08-19T00:26:15.681Z,15.77
2022-08-19T00:28:42.587Z,19.03
2022-08-19T00:31:10.688Z,16.20
2022-08-19T00:33:38.146Z,17.50
2022-08-19T00:36:08.140Z,20.93
2022-08-19T00:38:37.746Z,16.67
2022-08-19T00:41:07.521Z,18.80
2022-08-19T00:43:34.652Z,19.13
2022-08-19T00:46:05.807Z,16.40
2022-08-19T00:48:34.619Z,18.00
2022-08-19T00:51:02.484Z,18.57
2022-08-19T00:53:32.775Z,17.57
2022-08-19T00:56:02.062Z,16.93
2022-08-19T00:58:33.478Z,18.87
2022-08-19T01:01:01.843Z,15.87
2022-08-19T01:03:29.062Z,20.57
2022-08-19T01:06:19.973Z,19.27
2022-08-19T01:08:50.177Z,21.53
2022-08-19T01:11:17.584Z,18.97
2022-08-19T01:13:50.093Z,18.90
2022-08-19T01:16:19.768Z,21.73
2022-08-19T01:18:47.218Z,19.17
2022-08-19T01:21:33.721Z,20.67
2022-08-19T01:24:00.795Z,18.60
2022-08-19T01:26:28.535Z,19.93
2022-08-19T01:29:00.920Z,21.37
2022-08-19T01:31:32.910Z,18.70
2022-08-19T01:34:01.512Z,20.53
2022-08-19T01:36:34.292Z,21.47
2022-08-19T01:39:04.538Z,21.83
2022-08-19T01:41:31.380Z,21.30
2022-08-19T01:44:09.891Z,21.33
2022-08-19T01:46:45.358Z,25.23
2022-08-19T01:49:12.279Z,22.77
2022-08-19T01:51:40.399Z,16.70
2022-08-19T01:54:12.503Z,20.07
2022-08-19T01:56:39.654Z,17.63
2022-08-19T01:59:13.266Z,23.00
2022-08-19T02:01:40.237Z,21.00
2022-08-19T02:04:07.432Z,18.50
2022-08-19T02:06:34.547Z,17.70
2022-08-19T02:09:01.793Z,21.73
2022-08-19T02:11:34.888Z,18.47
2022-08-19T02:14:03.792Z,19.40
2022-08-19T02:16:31.842Z,18.43
2022-08-19T02:19:08.407Z,18.53
2022-08-19T02:21:44.659Z,19.60
2022-08-19T02:24:11.627Z,22.37
2022-08-19T02:26:38.422Z,22.50
2022-08-19T02:29:05.255Z,19.37
2022-08-19T02:31:32.195Z,19.23
2022-08-19T02:33:59.232Z,19.30
2022-08-19T02:36:26.877Z,20.20
2022-08-19T02:38:55.627Z,19.60
2022-08-19T02:41:28.492Z,19.77
2022-08-19T02:44:28.711Z,18.63
2022-08-19T02:46:47.515Z,17.53
2022-08-19T02:49:16.091Z,16.93
2022-08-19T02:51:45.546Z,21.13
2022-08-19T02:54:13.623Z,17.83
2022-08-19T02:56:49.899Z,18.10
2022-08-19T02:59:17.138Z,22.77
2022-08-19T03:01:50.173Z,20.40
2022-08-19T03:04:17.611Z,18.90
2022-08-19T03:06:47.621Z,19.43
2022-08-19T03:09:15.304Z,22.70
2022-08-19T03:11:42.215Z,19.10
2022-08-19T03:14:10.507Z,18.30
2022-08-19T03:16:46.728Z,20.10
2022-08-19T03:19:15.003Z,22.27
2022-08-19T03:21:45.563Z,19.37
2022-08-19T03:24:19.834Z,21.97
2022-08-19T03:26:58.649Z,23.50
2022-08-19T03:29:43.103Z,18.90
2022-08-19T03:32:32.149Z,19.93
2022-08-19T03:35:03.584Z,20.37
2022-08-19T03:37:30.509Z,19.07
2022-08-19T03:39:57.431Z,22.47
2022-08-19T03:42:32.992Z,20.07
2022-08-19T03:45:11.511Z,20.93
2022-08-19T03:47:38.855Z,20.10
2022-08-19T03:50:06.301Z,27.00
2022-08-19T03:52:33.156Z,19.47
2022-08-19T03:55:00.557Z,22.50
2022-08-19T03:57:32.125Z,18.70
2022-08-19T04:00:13.098Z,22.77
2022-08-19T04:02:56.518Z,21.27
2022-08-19T04:05:31.089Z,25.70
2022-08-19T04:08:00.040Z,20.40
2022-08-19T04:10:30.124Z,18.77
2022-08-19T04:12:57.031Z,22.30
2022-08-19T04:15:23.871Z,21.13
2022-08-19T04:17:53.128Z,19.67
2022-08-19T04:20:20.249Z,21.83
2022-08-19T04:22:47.264Z,21.87
2022-08-19T04:25:17.663Z,22.97
2022-08-19T04:27:47.321Z,22.03
2022-08-19T04:30:15.325Z,22.37
2022-08-19T04:32:44.618Z,21.63
2022-08-19T04:35:17.630Z,21.20
2022-08-19T04:37:46.351Z,20.80
2022-08-19T04:40:31.822Z,19.97
2022-08-19T04:42:58.701Z,25.83
2022-08-19T04:45:25.654Z,23.20
2022-08-19T04:47:58.301Z,28.30
2022-08-19T04:50:29.812Z,19.80
2022-08-19T04:52:56.836Z,19.93
2022-08-19T04:55:26.494Z,20.83
2022-08-19T04:57:53.793Z,21.33
2022-08-19T05:00:20.854Z,21.40
2022-08-19T05:02:47.946Z,21.00
2022-08-19T05:05:15.097Z,22.37
2022-08-19T05:07:42.223Z,20.07
2022-08-19T05:10:09.669Z,21.93
2022-08-19T05:12:36.627Z,26.00
2022-08-19T05:15:10.997Z,22.70
2022-08-19T05:17:39.178Z,20.03
2022-08-19T05:20:27.546Z,22.27
2022-08-19T05:22:54.614Z,21.53
2022-08-19T05:25:22.847Z,20.03
2022-08-19T05:27:49.826Z,25.60
2022-08-19T05:30:17.922Z,18.00
2022-08-19T05:32:45.622Z,16.53
2022-08-19T05:35:12.847Z,17.40
2022-08-19T05:37:43.164Z,19.50
2022-08-19T05:40:11.241Z,18.30
2022-08-19T05:42:38.736Z,19.07
2022-08-19T05:45:07.598Z,24.07
2022-08-19T05:47:42.115Z,20.50
2022-08-19T05:50:09.550Z,21.23
2022-08-19T05:52:39.232Z,20.93
2022-08-19T05:55:11.548Z,23.60
2022-08-19T05:57:38.575Z,17.30
2022-08-19T06:00:11.830Z,19.60
2022-08-19T06:02:39.041Z,22.13
2022-08-19T06:05:10.131Z,24.15
2022-08-19T06:07:42.313Z,17.67
2022-08-19T06:10:12.263Z,21.88
2022-08-19T06:12:39.987Z,19.87
2022-08-19T06:15:14.456Z,18.90
2022-08-19T06:17:45.333Z,20.27
2022-08-19T06:20:15.020Z,19.95
2022-08-19T06:22:44.959Z,18.80
2022-08-19T06:25:13.499Z,20.67
2022-08-19T06:27:53.408Z,21.70
2022-08-19T06:30:31.486Z,18.27
2022-08-19T06:32:59.210Z,21.65
2022-08-19T06:35:26.418Z,23.70
2022-08-19T06:37:53.665Z,23.63
2022-08-19T06:40:20.657Z,26.83
2022-08-19T06:42:54.097Z,21.75
2022-08-19T06:45:24.913Z,17.90
2022-08-19T06:47:56.931Z,17.63
2022-08-19T06:50:28.955Z,19.75
2022-08-19T06:52:55.989Z,22.63
2022-08-19T06:55:23.101Z,19.63
2022-08-19T06:57:52.104Z,19.92
2022-08-19T07:00:19.208Z,20.80
2022-08-19T07:02:50.741Z,19.75
2022-08-19T07:05:22.928Z,18.80
2022-08-19T07:07:51.050Z,21.95
2022-08-19T07:10:18.341Z,18.35
2022-08-19T07:12:45.400Z,17.38
2022-08-19T07:15:12.980Z,18.10
2022-08-19T07:17:42.206Z,28.00
2022-08-19T07:20:10.590Z,27.65
2022-08-19T07:22:41.125Z,17.35
2022-08-19T07:25:10.212Z,19.70
2022-08-19T07:27:38.148Z,16.73
2022-08-19T07:30:11.524Z,21.35
2022-08-19T07:32:39.781Z,19.42
2022-08-19T07:35:07.878Z,17.67
2022-08-19T07:37:38.013Z,19.23
2022-08-19T07:40:07.047Z,14.18
2022-08-19T07:42:34.094Z,17.83
2022-08-19T07:45:03.537Z,17.75
2022-08-19T07:47:48.273Z,16.58
2022-08-19T07:50:21.370Z,19.15
2022-08-19T07:52:56.244Z,19.67
2022-08-19T07:55:41.578Z,16.73
2022-08-19T07:58:11.497Z,20.98
2022-08-19T08:00:38.870Z,18.88
2022-08-19T08:03:06.018Z,14.45
2022-08-19T08:05:51.228Z,14.23
2022-08-19T08:08:36.650Z,18.73
2022-08-19T08:11:07.642Z,18.15
2022-08-19T08:13:39.071Z,18.88
2022-08-19T08:16:10.296Z,14.70
2022-08-19T08:18:43.473Z,15.38
2022-08-19T08:21:18.001Z,19.00
2022-08-19T08:23:44.892Z,16.75
2022-08-19T08:26:11.977Z,18.35
2022-08-19T08:28:39.792Z,21.15
2022-08-19T08:31:09.638Z,19.40
2022-08-19T08:33:36.889Z,15.20
2022-08-19T08:36:06.688Z,15.68
2022-08-19T08:38:39.050Z,13.20
2022-08-19T08:41:32.436Z,15.38
2022-08-19T08:43:59.632Z,12.88
2022-08-19T08:46:52.904Z,17.23
2022-08-19T08:49:28.748Z,15.23
2022-08-19T08:52:14.682Z,16.20
2022-08-19T08:54:48.811Z,14.60
2022-08-19T08:57:40.704Z,13.52
2022-08-19T09:00:18.511Z,15.02
2022-08-19T09:02:50.499Z,11.23
2022-08-19T09:05:22.226Z,12.38
2022-08-19T09:08:05.893Z,15.02
2022-08-19T09:10:55.250Z,14.02
2022-08-19T09:14:05.278Z,12.52
2022-08-19T09:16:32.299Z,14.40
2022-08-19T09:19:04.076Z,13.50
2022-08-19T09:21:37.730Z,14.23
2022-08-19T09:24:07.660Z,14.50
2022-08-19T09:26:47.588Z,10.93
2022-08-19T09:29:19.371Z,15.30
2022-08-19T09:31:51.273Z,11.07
2022-08-19T09:34:22.109Z,12.65
2022-08-19T09:36:54.935Z,11.93
2022-08-19T09:39:22.411Z,15.35
2022-08-19T09:41:50.990Z,12.95
2022-08-19T09:44:18.866Z,10.65
2022-08-19T09:46:48.189Z,11.45
2022-08-19T09:49:18.340Z,14.10
2022-08-19T09:51:49.068Z,10.55
2022-08-19T09:54:23.624Z,10.13
2022-08-19T09:56:52.281Z,15.43
2022-08-19T09:59:19.385Z,11.68
2022-08-19T10:01:46.378Z,10.95
2022-08-19T10:04:20.220Z,13.50
2022-08-19T10:06:51.787Z,12.13
2022-08-19T10:09:33.742Z,10.90
2022-08-19T10:12:11.273Z,10.18
2022-08-19T10:14:39.276Z,11.27
2022-08-19T10:17:19.219Z,18.08
2022-08-19T10:19:52.695Z,12.00
2022-08-19T10:22:25.771Z,12.65
2022-08-19T10:24:53.541Z,13.25
2022-08-19T10:27:20.479Z,10.88
2022-08-19T10:29:48.519Z,11.40
2022-08-19T10:32:16.237Z,12.13
2022-08-19T10:34:48.857Z,10.80
2022-08-19T10:37:23.459Z,14.07
2022-08-19T10:39:51.795Z,17.52
2022-08-19T10:42:19.727Z,12.30
2022-08-19T10:44:47.802Z,10.88
2022-08-19T10:47:18.006Z,11.15
2022-08-19T10:50:12.356Z,10.35
2022-08-19T10:52:50.267Z,12.18
2022-08-19T10:55:39.055Z,13.57
2022-08-19T10:58:14.975Z,10.85
2022-08-19T11:00:44.244Z,11.68
2022-08-19T11:03:11.391Z,12.32
2022-08-19T11:05:40.303Z,11.90
2022-08-19T11:08:22.334Z,10.48
2022-08-19T11:10:51.486Z,12.13
2022-08-19T11:13:18.328Z,12.38
2022-08-19T11:15:48.702Z,13.18
2022-08-19T11:18:15.765Z,12.25
2022-08-19T11:20:42.617Z,9.98
2022-08-19T11:23:10.351Z,14.40
2022-08-19T11:25:40.037Z,9.48
2022-08-19T11:28:06.968Z,8.25
2022-08-19T11:30:35.035Z,10.73
2022-08-19T11:33:02.043Z,11.23
2022-08-19T11:35:29.135Z,9.95
2022-08-19T11:37:57.124Z,12.18
2022-08-19T11:40:24.020Z,13.95
2022-08-19T11:42:57.195Z,11.45
2022-08-19T11:45:25.916Z,11.77
2022-08-19T11:47:53.040Z,11.40
2022-08-19T11:50:20.533Z,12.57
2022-08-19T11:52:48.235Z,11.15
2022-08-19T11:55:15.610Z,10.63
2022-08-19T11:57:44.456Z,13.10
2022-08-19T12:00:13.665Z,8.70
2022-08-19T12:02:41.008Z,10.95
2022-08-19T12:05:12.568Z,10.65
2022-08-19T12:07:41.838Z,11.90
2022-08-19T12:10:09.403Z,8.77
2022-08-19T12:12:43.623Z,10.52
2022-08-19T12:15:11.990Z,9.23
2022-08-19T12:17:39.377Z,12.65
2022-08-19T12:20:07.908Z,8.27
2022-08-19T12:22:35.973Z,11.57
2022-08-19T12:25:03.100Z,8.95
2022-08-19T12:27:40.145Z,10.63
2022-08-19T12:30:11.635Z,10.68
2022-08-19T12:32:39.955Z,9.35
2022-08-19T12:35:10.423Z,12.82
2022-08-19T12:37:37.505Z,11.45
2022-08-19T12:40:05.128Z,10.80
2022-08-19T12:42:32.122Z,12.25
2022-08-19T12:45:11.616Z,10.70
2022-08-19T12:47:39.569Z,12.60
2022-08-19T12:50:11.401Z,10.57
2022-08-19T12:52:46.111Z,10.20
2022-08-19T12:55:13.174Z,9.95
2022-08-19T12:57:40.919Z,8.32
2022-08-19T13:00:17.844Z,11.35
2022-08-19T13:02:47.105Z,7.70
2022-08-19T13:05:24.922Z,9.70
2022-08-19T13:07:55.974Z,9.65
2022-08-19T13:10:23.811Z,13.43
2022-08-19T13:12:52.395Z,10.73
2022-08-19T13:15:23.656Z,8.40
2022-08-19T13:17:53.800Z,8.57
2022-08-19T13:20:21.834Z,12.05
2022-08-19T13:22:49.792Z,13.73
2022-08-19T13:25:19.513Z,10.10
2022-08-19T13:27:47.346Z,10.18
2022-08-19T13:30:35.070Z,9.18
2022-08-19T13:33:16.981Z,8.95
2022-08-19T13:35:47.194Z,13.05
2022-08-19T13:38:17.522Z,9.45
2022-08-19T13:40:45.092Z,8.15
2022-08-19T13:43:17.841Z,10.73
2022-08-19T13:45:56.395Z,11.60
2022-08-19T13:48:27.341Z,10.23
2022-08-19T13:51:01.310Z,10.98
2022-08-19T13:53:28.329Z,10.68
2022-08-19T13:55:55.232Z,9.70
2022-08-19T13:58:23.271Z,8.38
2022-08-19T14:00:50.422Z,10.95
2022-08-19T14:03:17.359Z,8.32
2022-08-19T14:05:53.118Z,8.75
2022-08-19T14:08:20.033Z,9.27
2022-08-19T14:10:47.111Z,9.50
2022-08-19T14:13:16.771Z,10.38
2022-08-19T14:15:43.782Z,9.43
2022-08-19T14:18:11.342Z,8.85
2022-08-19T14:20:38.376Z,10.70
2022-08-19T14:23:06.745Z,18.80
2022-08-19T14:25:35.091Z,9.13
2022-08-19T14:28:02.335Z,12.75
2022-08-19T14:30:32.861Z,9.73
2022-08-19T14:33:01.919Z,7.78
2022-08-19T14:35:30.497Z,8.30
2022-08-19T14:37:58.868Z,14.68
2022-08-19T14:40:28.433Z,6.57
2022-08-19T14:43:00.227Z,8.80
2022-08-19T14:45:28.982Z,11.88
2022-08-19T14:47:56.115Z,14.82
2022-08-19T14:50:23.766Z,11.65
2022-08-19T14:52:51.838Z,9.23
2022-08-19T14:55:19.129Z,10.50
2022-08-19T14:57:46.476Z,11.68
2022-08-19T15:00:14.399Z,12.57
2022-08-19T15:02:45.108Z,11.88
2022-08-19T15:05:12.178Z,6.88
2022-08-19T15:07:39.328Z,18.67
2022-08-19T15:10:09.246Z,11.38
2022-08-19T15:12:37.201Z,11.00
2022-08-19T15:15:04.353Z,8.45
2022-08-19T15:17:43.502Z,8.43
2022-08-19T15:20:18.048Z,9.95
2022-08-19T15:22:45.123Z,10.25
2022-08-19T15:25:14.573Z,7.75
2022-08-19T15:27:42.129Z,6.47
2022-08-19T15:30:10.154Z,7.45
2022-08-19T15:32:38.160Z,10.40
2022-08-19T15:35:07.083Z,9.65
2022-08-19T15:37:36.946Z,12.15
2022-08-19T15:40:05.870Z,8.43
2022-08-19T15:42:33.156Z,10.00
2022-08-19T15:45:01.063Z,13.52
2022-08-19T15:47:34.412Z,8.30
2022-08-19T15:50:10.489Z,8.57
2022-08-19T15:52:49.267Z,9.35
2022-08-19T15:55:33.064Z,8.65
2022-08-19T15:58:29.890Z,14.13
2022-08-19T16:01:26.932Z,8.65
2022-08-19T16:04:15.873Z,11.32
2022-08-19T16:06:55.709Z,10.77
2022-08-19T16:09:27.723Z,9.57
2022-08-19T16:12:06.142Z,8.95
2022-08-19T16:14:35.379Z,12.90
2022-08-19T16:17:02.975Z,11.60
2022-08-19T16:19:30.088Z,9.13
2022-08-19T16:21:57.406Z,11.27
2022-08-19T16:24:26.898Z,18.98
2022-08-19T16:26:54.715Z,11.43
2022-08-19T16:29:33.986Z,9.52
2022-08-19T16:32:06.973Z,9.95
2022-08-19T16:34:34.645Z,7.85
2022-08-19T16:37:01.919Z,12.13
2022-08-19T16:39:28.931Z,12.25
2022-08-19T16:41:55.786Z,11.30
2022-08-19T16:44:22.766Z,7.97
2022-08-19T16:46:57.378Z,9.85
2022-08-19T16:49:53.915Z,9.98
2022-08-19T16:52:16.091Z,8.07
2022-08-19T16:54:43.754Z,13.25
2022-08-19T16:57:12.360Z,11.98
2022-08-19T16:59:42.613Z,11.85
2022-08-19T17:02:16.566Z,12.43
2022-08-19T17:04:43.376Z,9.88
2022-08-19T17:07:10.864Z,11.45
2022-08-19T17:09:38.021Z,11.07
2022-08-19T17:12:05.526Z,8.25
2022-08-19T17:14:32.410Z,15.18
2022-08-19T17:16:59.269Z,11.73
2022-08-19T17:19:26.212Z,9.48
2022-08-19T17:21:53.139Z,8.90
2022-08-19T17:24:20.174Z,9.07
2022-08-19T17:26:47.077Z,8.93
2022-08-19T17:29:14.698Z,10.25
2022-08-19T17:31:41.796Z,8.70
2022-08-19T17:34:09.214Z,10.30
2022-08-19T17:36:36.276Z,8.15
2022-08-19T17:39:05.128Z,7.53
2022-08-19T17:41:34.203Z,7.75
2022-08-19T17:44:02.470Z,12.27
2022-08-19T17:46:30.166Z,9.13
2022-08-19T17:48:58.404Z,11.48
2022-08-19T17:51:35.678Z,10.80
2022-08-19T17:54:04.450Z,12.88
2022-08-19T17:56:31.272Z,12.20
2022-08-19T17:59:00.403Z,8.45
2022-08-19T18:01:52.411Z,7.30
2022-08-19T18:04:18.033Z,8.25
2022-08-19T18:06:52.594Z,10.00
2022-08-19T18:09:23.968Z,9.68
2022-08-19T18:11:52.986Z,12.68
2022-08-19T18:14:33.032Z,10.25
2022-08-19T18:17:09.775Z,9.68
2022-08-19T18:19:43.002Z,10.73
2022-08-19T18:22:34.019Z,11.13
2022-08-19T18:25:02.891Z,8.48
2022-08-19T18:27:29.811Z,9.32
2022-08-19T18:29:59.412Z,10.82
2022-08-19T18:32:31.741Z,11.88
2022-08-19T18:35:01.669Z,11.10
2022-08-19T18:37:29.247Z,12.23
2022-08-19T18:40:14.636Z,13.50
2022-08-19T18:43:03.811Z,10.80
2022-08-19T18:45:50.189Z,11.02
2022-08-19T18:48:35.611Z,10.95
2022-08-19T18:51:03.197Z,7.70
2022-08-19T18:53:34.046Z,12.68
2022-08-19T18:56:00.973Z,13.15
2022-08-19T18:58:36.578Z,9.15
2022-08-19T19:01:21.661Z,13.20
2022-08-19T19:03:54.593Z,10.25
2022-08-19T19:06:29.062Z,8.85
2022-08-19T19:08:56.973Z,10.10
2022-08-19T19:11:31.565Z,12.82
2022-08-19T19:14:01.927Z,9.13
2022-08-19T19:16:32.654Z,22.42
2022-08-19T19:19:00.577Z,10.75
2022-08-19T19:21:30.837Z,10.13
2022-08-19T19:24:00.467Z,12.95
2022-08-19T19:26:27.602Z,10.90
2022-08-19T19:28:54.881Z,10.13
2022-08-19T19:31:26.625Z,11.52
2022-08-19T19:33:55.727Z,10.98
2022-08-19T19:36:23.589Z,13.75
2022-08-19T19:38:50.498Z,13.15
2022-08-19T19:41:23.395Z,12.43
2022-08-19T19:44:16.344Z,11.93
2022-08-19T19:46:42.718Z,9.75
2022-08-19T19:49:10.537Z,12.30
2022-08-19T19:51:41.181Z,9.85
2022-08-19T19:54:09.511Z,10.02
2022-08-19T19:56:36.377Z,10.85
2022-08-19T19:59:04.090Z,10.80
2022-08-19T20:01:31.146Z,9.63
2022-08-19T20:04:01.501Z,9.40
2022-08-19T20:06:29.184Z,9.98
2022-08-19T20:09:10.527Z,9.98
2022-08-19T20:11:44.654Z,15.75
2022-08-19T20:14:21.478Z,12.13
2022-08-19T20:16:49.988Z,12.10
2022-08-19T20:19:20.648Z,11.13
2022-08-19T20:21:51.343Z,10.75
2022-08-19T20:24:22.541Z,10.52
2022-08-19T20:26:50.362Z,14.48
2022-08-19T20:29:39.431Z,9.60
2022-08-19T20:32:09.914Z,11.98
2022-08-19T20:34:37.279Z,9.75
2022-08-19T20:37:04.738Z,12.15
2022-08-19T20:39:31.943Z,13.73
2022-08-19T20:42:00.139Z,12.65
2022-08-19T20:44:27.096Z,10.52
2022-08-19T20:46:56.763Z,15.55
2022-08-19T20:49:27.063Z,16.67
2022-08-19T20:51:55.271Z,10.30
2022-08-19T20:54:22.184Z,13.65
2022-08-19T20:56:51.123Z,9.27
2022-08-19T20:59:20.008Z,10.93
2022-08-19T21:01:47.428Z,10.90
2022-08-19T21:04:14.469Z,14.35
2022-08-19T21:06:45.359Z,10.85
2022-08-19T21:09:13.768Z,11.75
2022-08-19T21:11:41.140Z,13.25
2022-08-19T21:14:08.240Z,14.38
2022-08-19T21:16:35.336Z,11.18
2022-08-19T21:22:52.857Z,13.90
2022-08-19T21:25:19.803Z,16.42
2022-08-19T21:27:46.683Z,13.02
2022-08-19T21:30:13.874Z,11.90
2022-08-19T21:32:40.872Z,13.02
2022-08-19T21:35:08.062Z,13.98
2022-08-19T21:37:35.597Z,14.38
2022-08-19T21:40:02.616Z,14.38
2022-08-19T21:42:29.661Z,17.77
2022-08-19T21:45:03.245Z,10.48
2022-08-19T21:47:30.371Z,12.23
2022-08-19T21:49:57.274Z,19.05
2022-08-19T21:52:26.791Z,12.57
2022-08-19T21:54:55.159Z,18.00
2022-08-19T21:57:23.544Z,14.40
2022-08-19T21:59:51.866Z,14.38
2022-08-19T22:02:20.851Z,12.55
2022-08-19T22:04:49.238Z,14.57
2022-08-19T22:07:16.228Z,15.60
2022-08-19T22:09:45.651Z,11.38
2022-08-19T22:12:23.417Z,13.45
2022-08-19T22:14:51.898Z,14.90
2022-08-19T22:17:19.809Z,12.73
2022-08-19T22:19:47.149Z,12.90
2022-08-19T22:22:24.194Z,11.60
2022-08-19T22:24:52.983Z,14.25
2022-08-19T22:27:20.682Z,11.25
2022-08-19T22:29:47.656Z,11.02
2022-08-19T22:32:26.692Z,10.52
2022-08-19T22:34:57.108Z,14.57
2022-08-19T22:37:24.045Z,16.63
2022-08-19T22:39:50.935Z,13.83
2022-08-19T22:42:20.200Z,11.60
2022-08-19T22:44:47.140Z,10.70
2022-08-19T22:47:13.971Z,10.88
2022-08-19T22:49:40.936Z,13.23
2022-08-19T22:52:19.849Z,11.63
2022-08-19T22:54:52.003Z,13.90
2022-08-19T22:57:20.608Z,11.30
2022-08-19T22:59:50.271Z,12.03
2022-08-19T23:02:30.096Z,12.55
2022-08-19T23:04:57.395Z,14.63
2022-08-19T23:07:24.231Z,11.52
2022-08-19T23:09:51.097Z,15.98
2022-08-19T23:12:31.154Z,10.88
2022-08-19T23:15:06.178Z,15.65
2022-08-19T23:17:33.995Z,18.58
2022-08-19T23:20:00.860Z,13.40
2022-08-19T23:22:29.443Z,14.10
2022-08-19T23:25:01.143Z,11.00
2022-08-19T23:27:46.833Z,13.50
2022-08-19T23:30:34.184Z,17.43
2022-08-19T23:33:12.670Z,12.30
2022-08-19T23:35:41.068Z,9.50
2022-08-19T23:38:08.511Z,15.38
2022-08-19T23:40:37.215Z,8.95
2022-08-19T23:43:09.695Z,9.75
2022-08-19T23:45:41.102Z,15.10
2022-08-19T23:48:18.701Z,13.53
2022-08-19T23:50:46.438Z,10.07
2022-08-19T23:53:14.805Z,12.83
2022-08-19T23:55:45.318Z,14.60
2022-08-19T23:58:13.801Z,12.75
